Time;durP1;ratioP1;P1;durP2;ratioP2;P2;SDS_P1;SDS_P2;PMS_P1;PMS_P2;Temp;Humidity;BMP_temperature;BMP_pressure;BME280_temperature;BME280_humidity;BME280_pressure;Samples;Min_cycle;Max_cycle;Signal;HPM_P1;HPM_P2
2022/03/10 00:00:44;;;;;;;23.13;14.43;;;;;;;;;;5069896;28;20260;-18
2022/03/10 00:03:11;;;;;;;19.38;14.35;;;;;;;;;;5070349;28;20328;-18
2022/03/10 00:05:38;;;;;;;24.63;14.48;;;;;;;;;;5071207;28;20888;-18
2022/03/10 00:08:06;;;;;;;18.00;13.25;;;;;;;;;;5070841;28;20344;-18
2022/03/10 00:10:33;;;;;;;18.02;13.48;;;;;;;;;;5069204;28;20356;-18
2022/03/10 00:13:03;;;;;;;19.52;13.15;;;;;;;;;;5070971;28;20229;-18
2022/03/10 00:15:30;;;;;;;21.50;13.77;;;;;;;;;;5070444;28;20226;-18
2022/03/10 00:18:02;;;;;;;17.08;12.98;;;;;;;;;;5070400;28;20249;-18
2022/03/10 00:20:29;;;;;;;18.83;13.18;;;;;;;;;;5070208;28;20237;-18
2022/03/10 00:22:57;;;;;;;15.45;13.25;;;;;;;;;;5070123;28;20241;-18
2022/03/10 00:25:24;;;;;;;17.00;12.88;;;;;;;;;;5071333;28;20229;-18
2022/03/10 00:27:51;;;;;;;17.13;13.07;;;;;;;;;;5069421;28;20243;-18
2022/03/10 00:30:18;;;;;;;17.55;13.27;;;;;;;;;;5070179;28;20325;-18
2022/03/10 00:32:47;;;;;;;15.55;12.80;;;;;;;;;;5070329;28;20292;-19
2022/03/10 00:35:14;;;;;;;16.02;12.15;;;;;;;;;;5070494;28;20221;-18
2022/03/10 00:37:41;;;;;;;17.65;12.73;;;;;;;;;;5070044;28;20259;-18
2022/03/10 00:40:08;;;;;;;16.23;12.48;;;;;;;;;;5070039;28;20244;-18
2022/03/10 00:42:35;;;;;;;18.02;12.13;;;;;;;;;;5070195;28;20239;-18
2022/03/10 00:45:02;;;;;;;18.45;12.40;;;;;;;;;;5069898;28;21077;-18
2022/03/10 00:47:30;;;;;;;14.20;11.52;;;;;;;;;;5050502;28;20222;-18
2022/03/10 00:49:57;;;;;;;16.67;12.05;;;;;;;;;;5063621;28;20981;-18
2022/03/10 00:52:24;;;;;;;18.95;12.70;;;;;;;;;;5071887;28;20236;-18
2022/03/10 00:54:51;;;;;;;18.33;12.30;;;;;;;;;;5077235;28;20229;-18
2022/03/10 00:57:18;;;;;;;15.02;12.07;;;;;;;;;;5070694;28;20287;-18
2022/03/10 00:59:45;;;;;;;14.80;11.68;;;;;;;;;;5069451;28;20718;-18
2022/03/10 01:02:12;;;;;;;17.00;11.80;;;;;;;;;;5069637;28;21083;-18
2022/03/10 01:04:41;;;;;;;14.73;12.15;;;;;;;;;;5069526;28;20653;-18
2022/03/10 01:07:09;;;;;;;14.57;11.65;;;;;;;;;;5070581;28;20244;-18
2022/03/10 01:09:36;;;;;;;14.10;11.15;;;;;;;;;;5069447;28;20712;-18
2022/03/10 01:12:03;;;;;;;15.82;11.32;;;;;;;;;;5069869;28;21006;-18
2022/03/10 01:14:30;;;;;;;13.55;11.35;;;;;;;;;;5069032;28;20232;-18
2022/03/10 01:16:58;;;;;;;14.25;11.55;;;;;;;;;;5069763;28;20229;-18
2022/03/10 01:19:26;;;;;;;14.88;10.73;;;;;;;;;;5063210;28;20237;-18
2022/03/10 01:21:53;;;;;;;12.90;10.95;;;;;;;;;;5061939;28;20237;-18
2022/03/10 01:24:20;;;;;;;23.67;11.25;;;;;;;;;;5069350;28;20229;-18
2022/03/10 01:26:47;;;;;;;14.52;11.52;;;;;;;;;;5069173;28;20224;-18
2022/03/10 01:29:14;;;;;;;13.68;11.13;;;;;;;;;;5065910;28;20229;-18
2022/03/10 01:31:41;;;;;;;14.20;10.93;;;;;;;;;;5067600;28;20241;-18
2022/03/10 01:34:08;;;;;;;11.63;9.85;;;;;;;;;;5050053;28;20232;-18
2022/03/10 01:36:35;;;;;;;13.07;10.70;;;;;;;;;;5076477;28;20222;-18
2022/03/10 01:39:04;;;;;;;11.27;9.85;;;;;;;;;;5068453;28;20716;-18
2022/03/10 01:41:33;;;;;;;12.43;10.52;;;;;;;;;;5080258;28;20229;-18
2022/03/10 01:44:00;;;;;;;13.18;10.25;;;;;;;;;;5085388;28;20232;-18
2022/03/10 01:46:27;;;;;;;12.73;10.07;;;;;;;;;;5069151;28;20233;-18
2022/03/10 01:48:55;;;;;;;15.75;9.95;;;;;;;;;;5071524;28;20329;-18
2022/03/10 01:51:22;;;;;;;13.95;10.20;;;;;;;;;;5069987;28;20238;-18
2022/03/10 01:53:51;;;;;;;14.52;10.27;;;;;;;;;;5072086;28;20233;-18
2022/03/10 01:56:18;;;;;;;14.18;9.85;;;;;;;;;;5063524;28;20234;-18
2022/03/10 01:58:45;;;;;;;13.13;10.05;;;;;;;;;;5070146;28;20229;-18
2022/03/10 02:01:12;;;;;;;12.93;9.18;;;;;;;;;;5070713;28;20735;-18
2022/03/10 02:03:40;;;;;;;12.65;9.25;;;;;;;;;;5070437;28;20662;-18
2022/03/10 02:06:07;;;;;;;11.50;9.55;;;;;;;;;;5070355;28;20612;-18
2022/03/10 02:11:20;;;;;;;15.95;9.65;;;;;;;;;;5071813;28;20248;-18
2022/03/10 02:13:47;;;;;;;12.02;9.63;;;;;;;;;;5072310;28;20696;-18
2022/03/10 02:19:00;;;;;;;12.00;9.75;;;;;;;;;;5072840;28;20699;-18
2022/03/10 02:21:27;;;;;;;11.13;9.50;;;;;;;;;;5071805;28;20997;-18
2022/03/10 02:23:53;;;;;;;12.38;9.57;;;;;;;;;;5072023;28;20227;-18
2022/03/10 02:26:20;;;;;;;11.95;9.70;;;;;;;;;;5060432;28;21020;-18
2022/03/10 02:28:48;;;;;;;11.73;8.93;;;;;;;;;;5072532;28;20964;-18
2022/03/10 02:31:16;;;;;;;12.32;9.52;;;;;;;;;;5072142;28;20953;-18
2022/03/10 02:33:43;;;;;;;11.48;8.85;;;;;;;;;;5072484;28;20936;-18
2022/03/10 02:36:10;;;;;;;11.48;9.20;;;;;;;;;;5071550;28;20230;-18
2022/03/10 02:38:37;;;;;;;10.35;8.60;;;;;;;;;;5072402;28;20230;-18
2022/03/10 02:41:04;;;;;;;11.82;9.13;;;;;;;;;;5072717;28;20236;-18
2022/03/10 02:43:31;;;;;;;11.88;9.07;;;;;;;;;;5072134;28;20233;-18
2022/03/10 02:45:58;;;;;;;12.85;9.57;;;;;;;;;;5071485;28;20238;-18
2022/03/10 02:48:25;;;;;;;13.50;8.77;;;;;;;;;;5071688;28;21051;-18
2022/03/10 02:50:52;;;;;;;11.10;8.77;;;;;;;;;;5071788;28;20250;-18
2022/03/10 02:53:19;;;;;;;11.85;8.90;;;;;;;;;;5072618;28;20260;-18
2022/03/10 02:55:46;;;;;;;13.38;9.07;;;;;;;;;;5072246;28;20240;-18
2022/03/10 02:58:13;;;;;;;11.65;8.85;;;;;;;;;;5071188;28;20332;-18
2022/03/10 03:00:40;;;;;;;11.05;9.13;;;;;;;;;;5071154;28;20236;-18
2022/03/10 03:03:07;;;;;;;11.07;8.82;;;;;;;;;;5054016;28;21030;-18
2022/03/10 03:05:34;;;;;;;10.88;8.75;;;;;;;;;;5072191;28;20236;-18
2022/03/10 03:08:01;;;;;;;11.15;8.80;;;;;;;;;;5072083;28;20241;-18
2022/03/10 03:10:28;;;;;;;11.38;8.52;;;;;;;;;;5070497;28;20238;-18
2022/03/10 03:12:55;;;;;;;10.38;8.70;;;;;;;;;;5071852;28;20241;-18
2022/03/10 03:15:22;;;;;;;9.85;7.70;;;;;;;;;;5071195;28;20241;-18
2022/03/10 03:17:49;;;;;;;10.88;8.23;;;;;;;;;;5072114;28;20241;-18
2022/03/10 03:20:16;;;;;;;10.38;8.43;;;;;;;;;;5070733;28;20229;-18
2022/03/10 03:22:46;;;;;;;11.38;8.27;;;;;;;;;;5081500;22;20324;-20
2022/03/10 03:25:17;;;;;;;11.35;8.55;;;;;;;;;;5080134;28;20239;-20
2022/03/10 03:27:45;;;;;;;10.48;8.18;;;;;;;;;;5073346;28;20233;-20
2022/03/10 03:30:12;;;;;;;9.70;8.25;;;;;;;;;;5063413;28;20258;-20
2022/03/10 03:32:39;;;;;;;11.65;8.68;;;;;;;;;;5072012;28;20986;-20
2022/03/10 03:35:06;;;;;;;11.30;8.60;;;;;;;;;;5072421;28;20233;-20
2022/03/10 03:37:33;;;;;;;12.20;8.57;;;;;;;;;;5071057;28;20240;-20
2022/03/10 03:40:00;;;;;;;11.75;8.55;;;;;;;;;;5068482;28;20236;-20
2022/03/10 03:42:32;;;;;;;10.73;8.02;;;;;;;;;;5055473;28;20226;-20
2022/03/10 03:44:59;;;;;;;10.52;7.82;;;;;;;;;;5049226;28;21133;-20
2022/03/10 03:47:26;;;;;;;10.15;8.07;;;;;;;;;;5068411;28;20235;-20
2022/03/10 03:49:53;;;;;;;9.70;7.07;;;;;;;;;;5068051;28;20233;-20
2022/03/10 03:52:20;;;;;;;10.27;7.75;;;;;;;;;;5053579;28;20762;-20
2022/03/10 03:54:47;;;;;;;9.50;8.00;;;;;;;;;;5056381;28;21081;-20
2022/03/10 03:57:14;;;;;;;8.68;7.75;;;;;;;;;;5055027;28;20920;-20
2022/03/10 03:59:41;;;;;;;9.73;8.15;;;;;;;;;;5052682;28;20609;-20
2022/03/10 04:02:08;;;;;;;10.27;7.57;;;;;;;;;;5051531;28;20226;-20
2022/03/10 04:04:35;;;;;;;8.68;7.18;;;;;;;;;;5062792;28;20709;-20
2022/03/10 04:07:03;;;;;;;8.88;7.45;;;;;;;;;;5071029;28;20233;-20
2022/03/10 04:09:30;;;;;;;9.35;7.47;;;;;;;;;;5070896;28;20816;-20
2022/03/10 04:11:57;;;;;;;10.05;8.13;;;;;;;;;;5070270;28;20994;-20
2022/03/10 04:14:24;;;;;;;9.65;8.13;;;;;;;;;;5069013;28;20235;-20
2022/03/10 04:16:51;;;;;;;9.98;7.75;;;;;;;;;;5070902;28;20229;-20
2022/03/10 04:19:18;;;;;;;9.20;7.50;;;;;;;;;;5069882;28;20230;-20
2022/03/10 04:21:45;;;;;;;9.57;7.60;;;;;;;;;;5079948;28;20236;-20
2022/03/10 04:24:12;;;;;;;10.23;7.50;;;;;;;;;;5090869;28;20239;-20
2022/03/10 04:26:39;;;;;;;9.50;7.70;;;;;;;;;;5082737;28;20327;-20
2022/03/10 04:29:06;;;;;;;10.73;7.65;;;;;;;;;;5074492;28;20974;-20
2022/03/10 04:31:33;;;;;;;10.13;7.85;;;;;;;;;;5074693;28;20233;-20
2022/03/10 04:34:00;;;;;;;12.73;7.65;;;;;;;;;;5074537;28;20233;-20
2022/03/10 04:36:27;;;;;;;10.32;7.28;;;;;;;;;;5069892;28;20237;-20
2022/03/10 04:38:54;;;;;;;9.10;7.05;;;;;;;;;;5086637;28;20232;-20
2022/03/10 04:41:23;;;;;;;9.68;7.50;;;;;;;;;;5090652;28;20928;-20
2022/03/10 04:43:50;;;;;;;9.90;7.43;;;;;;;;;;5086867;28;20240;-20
2022/03/10 04:46:18;;;;;;;9.23;7.25;;;;;;;;;;5070231;28;20235;-20
2022/03/10 04:48:45;;;;;;;9.85;7.60;;;;;;;;;;5070157;28;20265;-20
2022/03/10 04:51:12;;;;;;;9.85;7.43;;;;;;;;;;5070440;28;20229;-20
2022/03/10 04:53:39;;;;;;;8.77;6.85;;;;;;;;;;5070273;28;20245;-20
2022/03/10 04:56:06;;;;;;;8.63;7.63;;;;;;;;;;5071462;28;20244;-20
2022/03/10 04:58:33;;;;;;;10.48;7.10;;;;;;;;;;5071838;28;20710;-20
2022/03/10 05:01:00;;;;;;;9.07;7.43;;;;;;;;;;5089261;28;20615;-20
2022/03/10 05:03:29;;;;;;;10.90;7.53;;;;;;;;;;5090312;28;20243;-20
2022/03/10 05:05:56;;;;;;;7.72;6.93;;;;;;;;;;5090735;28;20290;-20
2022/03/10 05:08:23;;;;;;;9.25;7.15;;;;;;;;;;5089008;28;20679;-20
2022/03/10 05:10:50;;;;;;;9.63;6.95;;;;;;;;;;5070265;28;21035;-20
2022/03/10 05:13:17;;;;;;;8.70;6.93;;;;;;;;;;5070067;28;20332;-20
2022/03/10 05:15:44;;;;;;;8.88;6.95;;;;;;;;;;5055942;28;20229;-20
2022/03/10 05:18:11;;;;;;;8.05;7.00;;;;;;;;;;5069732;28;20225;-20
2022/03/10 05:20:38;;;;;;;9.73;7.10;;;;;;;;;;5070610;28;20229;-20
2022/03/10 05:23:06;;;;;;;8.88;7.03;;;;;;;;;;5086419;28;20251;-20
2022/03/10 05:25:36;;;;;;;8.70;7.30;;;;;;;;;;5094416;28;20228;-20
2022/03/10 05:28:03;;;;;;;9.73;7.20;;;;;;;;;;5091824;28;20236;-20
2022/03/10 05:30:30;;;;;;;8.80;7.32;;;;;;;;;;5083708;28;20233;-20
2022/03/10 05:32:56;;;;;;;7.85;6.30;;;;;;;;;;5072975;28;20244;-20
2022/03/10 05:35:24;;;;;;;9.15;6.68;;;;;;;;;;5087120;28;20237;-20
2022/03/10 05:37:51;;;;;;;8.50;6.68;;;;;;;;;;5073946;28;20237;-20
2022/03/10 05:40:18;;;;;;;9.80;6.93;;;;;;;;;;5084211;28;20229;-20
2022/03/10 05:42:45;;;;;;;7.82;6.30;;;;;;;;;;5072672;28;21060;-20
2022/03/10 05:45:12;;;;;;;8.38;6.80;;;;;;;;;;5087604;28;20233;-20
2022/03/10 05:47:39;;;;;;;10.82;6.78;;;;;;;;;;5082506;28;20229;-20
2022/03/10 05:50:06;;;;;;;7.47;6.30;;;;;;;;;;5094154;28;20235;-20
2022/03/10 05:52:33;;;;;;;8.55;5.93;;;;;;;;;;5092397;28;20241;-20
2022/03/10 05:55:00;;;;;;;7.72;6.18;;;;;;;;;;5077283;28;20239;-20
2022/03/10 05:57:27;;;;;;;7.18;6.30;;;;;;;;;;5072856;28;20617;-20
2022/03/10 05:59:54;;;;;;;7.00;6.30;;;;;;;;;;5084467;28;20233;-20
2022/03/10 06:02:21;;;;;;;7.53;6.10;;;;;;;;;;5085109;28;21071;-20
2022/03/10 06:04:48;;;;;;;7.13;5.80;;;;;;;;;;5071993;28;20268;-20
2022/03/10 06:07:16;;;;;;;9.80;7.15;;;;;;;;;;5079695;28;20319;-20
2022/03/10 06:09:43;;;;;;;8.07;6.22;;;;;;;;;;5088623;28;20235;-20
2022/03/10 06:12:10;;;;;;;10.23;6.55;;;;;;;;;;5077880;28;20247;-20
2022/03/10 06:14:37;;;;;;;9.30;6.72;;;;;;;;;;5076806;28;20233;-20
2022/03/10 06:17:04;;;;;;;8.38;5.68;;;;;;;;;;5072131;28;20230;-20
2022/03/10 06:19:31;;;;;;;13.57;6.70;;;;;;;;;;5077313;28;20409;-20
2022/03/10 06:21:58;;;;;;;16.63;6.50;;;;;;;;;;5091792;28;20432;-20
2022/03/10 06:24:25;;;;;;;10.98;7.40;;;;;;;;;;5090678;28;20240;-20
2022/03/10 06:26:52;;;;;;;13.38;7.60;;;;;;;;;;5081641;28;20720;-20
2022/03/10 06:29:19;;;;;;;12.57;7.95;;;;;;;;;;5073936;28;20240;-20
2022/03/10 06:31:47;;;;;;;13.68;7.68;;;;;;;;;;5077378;28;20233;-20
2022/03/10 06:34:14;;;;;;;11.00;7.72;;;;;;;;;;5076419;28;20243;-20
2022/03/10 06:36:42;;;;;;;10.38;7.35;;;;;;;;;;5083855;28;20429;-20
2022/03/10 06:39:12;;;;;;;10.48;7.57;;;;;;;;;;5082418;28;20229;-21
2022/03/10 06:41:39;;;;;;;9.70;6.28;;;;;;;;;;5082901;28;20232;-20
2022/03/10 06:44:06;;;;;;;8.48;7.00;;;;;;;;;;5078438;28;20946;-20
2022/03/10 06:46:33;;;;;;;11.18;7.13;;;;;;;;;;5082214;28;20704;-20
2022/03/10 06:49:00;;;;;;;13.35;5.97;;;;;;;;;;5080806;28;20235;-20
2022/03/10 06:51:27;;;;;;;8.00;6.00;;;;;;;;;;5072273;28;20244;-20
2022/03/10 06:53:54;;;;;;;6.78;6.07;;;;;;;;;;5078095;28;20681;-20
2022/03/10 06:56:25;;;;;;;9.75;6.40;;;;;;;;;;5083701;28;20252;-20
2022/03/10 06:58:52;;;;;;;12.45;6.50;;;;;;;;;;5077936;28;20239;-20
2022/03/10 07:01:20;;;;;;;9.88;7.93;;;;;;;;;;5078477;28;20233;-20
2022/03/10 07:03:47;;;;;;;12.98;8.00;;;;;;;;;;5090415;28;20511;-21
2022/03/10 07:06:14;;;;;;;18.33;8.15;;;;;;;;;;5091095;28;20497;-20
2022/03/10 07:08:41;;;;;;;20.75;8.27;;;;;;;;;;5090863;28;20427;-20
2022/03/10 07:11:08;;;;;;;17.98;8.27;;;;;;;;;;5083445;28;21120;-20
2022/03/10 07:13:36;;;;;;;14.07;7.60;;;;;;;;;;5072444;28;20633;-20
2022/03/10 07:16:03;;;;;;;13.48;7.47;;;;;;;;;;5071841;28;20231;-20
2022/03/10 07:18:31;;;;;;;12.80;7.03;;;;;;;;;;5071543;28;20214;-20
2022/03/10 07:20:58;;;;;;;9.95;7.05;;;;;;;;;;5072075;28;20240;-20
2022/03/10 07:23:25;;;;;;;10.40;7.53;;;;;;;;;;5071907;28;20290;-20
2022/03/10 07:25:54;;;;;;;13.60;7.18;;;;;;;;;;5051565;28;20230;-20
2022/03/10 07:28:21;;;;;;;17.52;7.53;;;;;;;;;;5051869;28;20234;-20
2022/03/10 07:30:48;;;;;;;10.25;7.43;;;;;;;;;;5071783;28;20239;-20
2022/03/10 07:33:15;;;;;;;8.65;6.80;;;;;;;;;;5077290;28;20244;-20
2022/03/10 07:35:42;;;;;;;10.23;7.40;;;;;;;;;;5078370;28;20225;-20
2022/03/10 07:38:10;;;;;;;11.55;6.55;;;;;;;;;;5091879;28;20729;-20
2022/03/10 07:40:37;;;;;;;11.02;6.60;;;;;;;;;;5084586;28;20378;-20
2022/03/10 07:43:05;;;;;;;11.80;7.65;;;;;;;;;;5086869;28;20283;-20
2022/03/10 07:45:32;;;;;;;15.07;6.80;;;;;;;;;;5070297;28;20225;-20
2022/03/10 07:48:00;;;;;;;14.40;6.80;;;;;;;;;;5071089;28;20236;-20
2022/03/10 07:50:27;;;;;;;10.27;6.85;;;;;;;;;;5071645;28;20692;-20
2022/03/10 07:52:54;;;;;;;9.85;7.50;;;;;;;;;;5071254;28;21024;-20
2022/03/10 07:55:21;;;;;;;14.00;7.78;;;;;;;;;;5070867;28;20316;-20
2022/03/10 07:57:49;;;;;;;20.83;9.10;;;;;;;;;;5071447;28;20225;-21
2022/03/10 08:00:16;;;;;;;18.05;8.68;;;;;;;;;;5085336;28;20220;-20
2022/03/10 08:02:43;;;;;;;12.80;8.27;;;;;;;;;;5091560;28;20981;-20
2022/03/10 08:05:10;;;;;;;14.07;7.60;;;;;;;;;;5074936;28;20283;-20
2022/03/10 08:07:37;;;;;;;11.43;7.50;;;;;;;;;;5051637;28;20233;-20
2022/03/10 08:10:08;;;;;;;15.05;7.68;;;;;;;;;;5084277;28;20229;-20
2022/03/10 08:12:35;;;;;;;14.43;8.23;;;;;;;;;;5088747;28;20658;-20
2022/03/10 08:15:02;;;;;;;11.85;6.88;;;;;;;;;;5089375;28;20231;-20
2022/03/10 08:17:29;;;;;;;13.55;6.88;;;;;;;;;;5070094;28;20233;-20
2022/03/10 08:19:56;;;;;;;14.70;6.68;;;;;;;;;;5080969;28;20233;-20
2022/03/10 08:22:26;;;;;;;14.60;7.20;;;;;;;;;;5074296;28;20252;-20
2022/03/10 08:24:53;;;;;;;11.40;6.88;;;;;;;;;;5080273;28;20239;-20
2022/03/10 08:27:20;;;;;;;14.25;6.68;;;;;;;;;;5074592;28;20235;-20
2022/03/10 08:29:47;;;;;;;15.10;6.22;;;;;;;;;;5091018;28;20775;-20
2022/03/10 08:32:15;;;;;;;13.07;7.05;;;;;;;;;;5072302;28;20229;-20
2022/03/10 08:34:42;;;;;;;14.65;7.20;;;;;;;;;;5082598;28;20239;-20
2022/03/10 08:37:09;;;;;;;14.23;7.55;;;;;;;;;;5090873;28;20602;-20
2022/03/10 08:39:36;;;;;;;12.95;7.20;;;;;;;;;;5079831;28;20240;-20
2022/03/10 08:42:03;;;;;;;14.15;7.53;;;;;;;;;;5068900;28;20241;-20
2022/03/10 08:44:30;;;;;;;12.13;7.10;;;;;;;;;;5074896;28;20231;-20
2022/03/10 08:46:57;;;;;;;12.77;6.90;;;;;;;;;;5080262;28;20232;-20
2022/03/10 08:49:24;;;;;;;10.05;6.70;;;;;;;;;;5087183;28;20875;-20
2022/03/10 08:51:51;;;;;;;7.95;6.60;;;;;;;;;;5078482;28;20710;-20
2022/03/10 08:54:19;;;;;;;12.52;6.30;;;;;;;;;;5070565;28;20238;-20
2022/03/10 08:56:46;;;;;;;9.57;6.43;;;;;;;;;;5050229;28;20222;-21
2022/03/10 08:59:13;;;;;;;10.63;7.10;;;;;;;;;;5064548;28;20238;-20
2022/03/10 09:01:40;;;;;;;14.85;7.10;;;;;;;;;;5069490;28;20229;-21
2022/03/10 09:04:08;;;;;;;9.75;6.13;;;;;;;;;;5070621;28;20229;-20
2022/03/10 09:06:35;;;;;;;8.80;6.18;;;;;;;;;;5069797;28;21042;-20
2022/03/10 09:09:03;;;;;;;8.52;5.38;;;;;;;;;;5076811;28;20588;-20
2022/03/10 09:11:30;;;;;;;8.18;5.95;;;;;;;;;;5085058;28;20282;-20
2022/03/10 09:13:59;;;;;;;7.38;5.60;;;;;;;;;;5070572;28;20324;-20
2022/03/10 09:16:26;;;;;;;8.98;5.80;;;;;;;;;;5069282;28;20236;-20
2022/03/10 09:18:53;;;;;;;10.20;5.95;;;;;;;;;;5070267;28;20312;-21
2022/03/10 09:21:20;;;;;;;11.68;6.25;;;;;;;;;;5070945;28;20249;-20
2022/03/10 09:23:47;;;;;;;6.97;6.05;;;;;;;;;;5089504;28;20232;-20
2022/03/10 09:26:15;;;;;;;7.93;6.25;;;;;;;;;;5080113;28;20241;-20
2022/03/10 09:28:43;;;;;;;9.00;5.88;;;;;;;;;;5088642;28;20297;-20
2022/03/10 09:31:14;;;;;;;10.80;6.18;;;;;;;;;;5083957;28;20233;-20
2022/03/10 09:33:41;;;;;;;7.85;5.53;;;;;;;;;;5082153;28;20330;-20
2022/03/10 09:36:08;;;;;;;11.48;6.45;;;;;;;;;;5072845;28;20708;-20
2022/03/10 09:38:35;;;;;;;8.45;5.57;;;;;;;;;;5071332;28;20231;-21
2022/03/10 09:41:02;;;;;;;5.88;4.95;;;;;;;;;;5083390;28;20233;-20
2022/03/10 09:43:29;;;;;;;11.02;5.50;;;;;;;;;;5069389;28;20229;-20
2022/03/10 09:45:56;;;;;;;9.02;5.53;;;;;;;;;;5064780;28;20229;-20
2022/03/10 09:48:23;;;;;;;8.13;5.70;;;;;;;;;;5064705;28;20286;-18
2022/03/10 09:50:50;;;;;;;8.77;5.97;;;;;;;;;;5068574;28;20240;-18
2022/03/10 09:53:19;;;;;;;9.18;5.57;;;;;;;;;;5069097;28;20243;-20
2022/03/10 09:55:46;;;;;;;10.02;5.97;;;;;;;;;;5072639;28;20243;-20
2022/03/10 09:58:13;;;;;;;8.23;5.45;;;;;;;;;;5075866;28;20237;-20
2022/03/10 10:00:40;;;;;;;7.70;5.30;;;;;;;;;;5075079;28;20243;-20
2022/03/10 10:03:07;;;;;;;6.95;5.47;;;;;;;;;;5078002;28;20715;-20
2022/03/10 10:05:34;;;;;;;6.38;5.43;;;;;;;;;;5068920;28;20234;-20
2022/03/10 10:08:01;;;;;;;7.43;5.65;;;;;;;;;;5068167;28;20233;-20
2022/03/10 10:10:28;;;;;;;7.57;5.50;;;;;;;;;;5087921;28;21006;-20
2022/03/10 10:13:06;;;;;;;9.43;6.30;;;;;;;;;;5079293;28;20229;-20
2022/03/10 10:15:33;;;;;;;8.45;6.82;;;;;;;;;;5072655;28;20230;-20
2022/03/10 10:18:00;;;;;;;10.20;6.93;;;;;;;;;;5079168;28;20240;-20
2022/03/10 10:20:40;;;;;;;9.98;5.97;;;;;;;;;;5075249;28;20260;-21
2022/03/10 10:23:07;;;;;;;12.02;6.55;;;;;;;;;;5089410;28;20244;-20
2022/03/10 10:25:34;;;;;;;11.25;6.75;;;;;;;;;;5091171;28;20224;-20
2022/03/10 10:28:23;;;;;;;9.90;7.03;;;;;;;;;;5074706;28;20241;-20
2022/03/10 10:30:50;;;;;;;10.73;6.55;;;;;;;;;;5064011;28;20245;-20
2022/03/10 10:33:17;;;;;;;10.70;6.60;;;;;;;;;;5076535;28;20691;-20
2022/03/10 10:35:45;;;;;;;10.65;6.85;;;;;;;;;;5092048;28;20312;-20
2022/03/10 10:38:12;;;;;;;8.73;6.85;;;;;;;;;;5092483;28;20228;-20
2022/03/10 10:40:39;;;;;;;9.02;6.72;;;;;;;;;;5078001;28;20712;-20
2022/03/10 10:43:06;;;;;;;11.13;7.05;;;;;;;;;;5072129;28;20225;-21
2022/03/10 10:45:33;;;;;;;6.93;5.75;;;;;;;;;;5072407;28;20237;-20
2022/03/10 10:48:00;;;;;;;8.38;5.88;;;;;;;;;;5072353;28;20233;-20
2022/03/10 10:50:27;;;;;;;9.52;6.18;;;;;;;;;;5071543;28;20233;-20
2022/03/10 10:52:54;;;;;;;8.10;5.78;;;;;;;;;;5072002;28;20320;-20
2022/03/10 10:55:21;;;;;;;8.45;6.00;;;;;;;;;;5071626;28;20241;-20
2022/03/10 10:57:49;;;;;;;11.88;6.25;;;;;;;;;;5072742;28;20233;-20
2022/03/10 11:00:17;;;;;;;8.43;6.35;;;;;;;;;;5071996;28;20268;-20
2022/03/10 11:02:44;;;;;;;9.55;6.38;;;;;;;;;;5078871;28;20229;-20
2022/03/10 11:05:12;;;;;;;6.72;5.57;;;;;;;;;;5087345;28;20266;-20
2022/03/10 11:07:42;;;;;;;7.65;5.72;;;;;;;;;;5093031;28;20235;-21
2022/03/10 11:10:09;;;;;;;7.75;6.60;;;;;;;;;;5092491;28;20237;-20
2022/03/10 11:12:39;;;;;;;8.80;6.40;;;;;;;;;;5087187;28;20229;-20
2022/03/10 11:15:07;;;;;;;8.85;6.15;;;;;;;;;;5085219;28;20236;-20
2022/03/10 11:17:34;;;;;;;9.73;6.40;;;;;;;;;;5072310;28;20752;-20
2022/03/10 11:20:03;;;;;;;9.77;6.45;;;;;;;;;;5085984;28;20312;-22
2022/03/10 11:22:30;;;;;;;11.30;6.10;;;;;;;;;;5091185;28;20360;-21
2022/03/10 11:24:57;;;;;;;9.18;6.10;;;;;;;;;;5088871;28;20241;-20
2022/03/10 11:27:24;;;;;;;9.00;6.60;;;;;;;;;;5091980;28;21057;-20
2022/03/10 11:29:51;;;;;;;7.80;5.97;;;;;;;;;;5090088;28;20240;-21
2022/03/10 11:32:18;;;;;;;10.20;6.75;;;;;;;;;;5073637;28;20240;-20
2022/03/10 11:34:48;;;;;;;9.30;6.70;;;;;;;;;;5077465;28;20233;-21
2022/03/10 11:37:15;;;;;;;10.65;6.90;;;;;;;;;;5071283;28;20248;-20
2022/03/10 11:39:42;;;;;;;8.68;6.55;;;;;;;;;;5071176;28;20240;-20
2022/03/10 11:42:09;;;;;;;9.85;7.40;;;;;;;;;;5071935;28;20340;-20
2022/03/10 11:44:36;;;;;;;8.15;6.85;;;;;;;;;;5081328;28;20231;-20
2022/03/10 11:47:07;;;;;;;10.48;6.88;;;;;;;;;;5073986;28;20246;-20
2022/03/10 11:49:34;;;;;;;9.15;6.35;;;;;;;;;;5082055;28;20320;-20
2022/03/10 11:52:04;;;;;;;12.25;6.53;;;;;;;;;;5091714;28;20236;-20
2022/03/10 11:54:31;;;;;;;9.07;6.88;;;;;;;;;;5090474;28;20232;-20
2022/03/10 11:56:58;;;;;;;8.02;6.95;;;;;;;;;;5084161;28;20237;-20
2022/03/10 11:59:25;;;;;;;8.82;6.82;;;;;;;;;;5079036;28;20237;-20
2022/03/10 12:01:53;;;;;;;10.10;6.93;;;;;;;;;;5080711;28;20233;-20
2022/03/10 12:04:23;;;;;;;11.05;7.35;;;;;;;;;;5091081;28;20243;-20
2022/03/10 12:06:50;;;;;;;9.88;6.70;;;;;;;;;;5091639;28;21049;-20
2022/03/10 12:09:17;;;;;;;9.65;7.38;;;;;;;;;;5070652;28;20248;-21
2022/03/10 12:11:44;;;;;;;10.02;7.45;;;;;;;;;;5071194;28;20232;-21
2022/03/10 12:14:11;;;;;;;9.70;7.30;;;;;;;;;;5070754;28;20237;-20
2022/03/10 12:16:38;;;;;;;8.90;7.15;;;;;;;;;;5070971;28;20253;-20
2022/03/10 12:19:05;;;;;;;9.95;7.13;;;;;;;;;;5076113;28;20232;-20
2022/03/10 12:21:32;;;;;;;12.63;7.45;;;;;;;;;;5089657;28;20240;-21
2022/03/10 12:23:59;;;;;;;8.68;7.35;;;;;;;;;;5085942;28;20240;-21
2022/03/10 12:26:26;;;;;;;9.88;7.45;;;;;;;;;;5069990;28;20264;-20
2022/03/10 12:28:53;;;;;;;11.20;7.63;;;;;;;;;;5075641;28;20228;-20
2022/03/10 12:31:21;;;;;;;12.07;8.30;;;;;;;;;;5070358;28;20685;-20
2022/03/10 12:33:49;;;;;;;14.93;8.25;;;;;;;;;;5073897;28;20244;-20
2022/03/10 12:36:16;;;;;;;12.30;8.50;;;;;;;;;;5070130;28;20233;-20
2022/03/10 12:38:45;;;;;;;10.05;8.43;;;;;;;;;;5071474;28;20323;-20
2022/03/10 12:41:14;;;;;;;13.23;8.00;;;;;;;;;;5070173;28;20229;-20
2022/03/10 12:43:41;;;;;;;12.70;7.82;;;;;;;;;;5073220;28;20230;-20
2022/03/10 12:46:08;;;;;;;13.95;9.15;;;;;;;;;;5082029;28;20599;-20
2022/03/10 12:48:36;;;;;;;13.98;9.27;;;;;;;;;;5070297;28;20707;-20
2022/03/10 12:51:03;;;;;;;18.35;11.48;;;;;;;;;;5069931;28;20229;-20
2022/03/10 12:53:30;;;;;;;18.13;12.55;;;;;;;;;;5066109;28;20237;-20
2022/03/10 12:55:57;;;;;;;19.65;12.80;;;;;;;;;;5068096;28;20291;-20
2022/03/10 12:58:24;;;;;;;17.27;12.07;;;;;;;;;;5080432;28;20229;-20
2022/03/10 13:00:51;;;;;;;20.05;12.77;;;;;;;;;;5077382;28;20229;-20
2022/03/10 13:03:18;;;;;;;17.13;13.30;;;;;;;;;;5072525;28;20472;-20
2022/03/10 13:05:45;;;;;;;17.02;12.55;;;;;;;;;;5090347;28;20232;-20
2022/03/10 13:08:13;;;;;;;18.48;11.98;;;;;;;;;;5089873;28;20672;-20
2022/03/10 13:10:40;;;;;;;18.83;12.80;;;;;;;;;;5062612;28;20234;-19
2022/03/10 13:13:07;;;;;;;18.35;12.23;;;;;;;;;;5070313;28;20275;-19
2022/03/10 13:15:34;;;;;;;18.33;11.20;;;;;;;;;;5067899;28;20252;-20
2022/03/10 13:18:02;;;;;;;18.40;11.55;;;;;;;;;;5069563;28;20283;-20
2022/03/10 13:20:30;;;;;;;17.83;11.02;;;;;;;;;;5089003;28;20316;-20
2022/03/10 13:22:57;;;;;;;14.38;10.98;;;;;;;;;;5089837;28;20270;-20
2022/03/10 13:25:24;;;;;;;16.15;10.35;;;;;;;;;;5078521;28;20607;-20
2022/03/10 13:27:51;;;;;;;20.80;10.85;;;;;;;;;;5090340;28;20260;-20
2022/03/10 13:30:18;;;;;;;15.30;10.48;;;;;;;;;;5066794;28;20731;-20
2022/03/10 13:32:47;;;;;;;14.82;9.43;;;;;;;;;;5069039;28;20225;-20
2022/03/10 13:35:14;;;;;;;13.05;9.98;;;;;;;;;;5068966;28;20245;-20
2022/03/10 13:37:41;;;;;;;14.40;10.25;;;;;;;;;;5068535;28;20697;-20
2022/03/10 13:40:08;;;;;;;15.23;10.25;;;;;;;;;;5082738;28;20305;-20
2022/03/10 13:42:35;;;;;;;17.98;10.95;;;;;;;;;;5049782;28;20230;-20
2022/03/10 13:45:02;;;;;;;18.42;10.45;;;;;;;;;;5068165;28;20233;-20
2022/03/10 13:47:29;;;;;;;14.23;10.48;;;;;;;;;;5064141;28;20245;-20
2022/03/10 13:49:58;;;;;;;14.63;10.45;;;;;;;;;;5085180;28;20707;-20
2022/03/10 13:52:26;;;;;;;16.45;11.35;;;;;;;;;;5093614;28;20225;-20
2022/03/10 13:54:53;;;;;;;17.92;9.75;;;;;;;;;;5092925;28;20354;-20
2022/03/10 13:57:20;;;;;;;14.82;10.82;;;;;;;;;;5090153;28;20243;-20
2022/03/10 13:59:47;;;;;;;15.88;10.10;;;;;;;;;;5093108;28;20691;-20
2022/03/10 14:02:14;;;;;;;15.50;10.18;;;;;;;;;;5091486;28;20221;-20
2022/03/10 14:04:41;;;;;;;12.90;9.85;;;;;;;;;;5093227;28;20711;-20
2022/03/10 14:07:08;;;;;;;15.50;9.25;;;;;;;;;;5092245;28;20712;-21
2022/03/10 14:09:35;;;;;;;12.30;9.50;;;;;;;;;;5081231;28;20933;-20
2022/03/10 14:12:02;;;;;;;14.43;9.90;;;;;;;;;;5072953;28;20704;-20
2022/03/10 14:14:29;;;;;;;15.25;9.75;;;;;;;;;;5073392;28;21060;-21
2022/03/10 14:16:56;;;;;;;11.38;8.55;;;;;;;;;;5072998;28;20244;-20
2022/03/10 14:19:24;;;;;;;14.52;9.63;;;;;;;;;;5078376;28;20236;-20
2022/03/10 14:21:51;;;;;;;14.38;9.40;;;;;;;;;;5072641;28;20237;-20
2022/03/10 14:24:18;;;;;;;13.63;8.68;;;;;;;;;;5080439;28;20237;-20
2022/03/10 14:26:45;;;;;;;12.45;8.98;;;;;;;;;;5093222;28;20233;-20
2022/03/10 14:29:12;;;;;;;11.90;9.02;;;;;;;;;;5085490;28;20233;-20
2022/03/10 14:31:39;;;;;;;11.57;9.05;;;;;;;;;;5072425;28;20234;-20
2022/03/10 14:34:06;;;;;;;12.75;9.35;;;;;;;;;;5072631;28;20234;-20
2022/03/10 14:36:33;;;;;;;13.50;8.68;;;;;;;;;;5070622;28;20248;-20